Terminal Aerodrome Forecast
Issued by NWS

Home | Current Version | Previous Version | Text Only | Print | Product List | Glossary On
Versions: 1 2 3 4 5 6 7 8 9 10 11 12 13
000
FTUS45 KRIW 222333
TAFWRL
TAF
KWRL 222333Z 2300/2324 07008KT P6SM SKC
     FM230130 VRB05KT P6SM SKC
     FM231100 31011KT P6SM BKN090
     FM231600 31011G17KT 5SM -SHRASN SCT015 BKN025 OVC035
     FM231900 32014G22KT P6SM VCSH SCT020 BKN030 OVC050=

USA.gov is the U.S. government's official web portal to all federal, state and local government web resources and services.